OIIK  Qazvin Airport

Add Bookmark

Qazvin, Iran

Status
Operational
Latitude Longitude
36° 14' 24" N 50° 2' 49" E
36.240101 50.047100
Local (DST + 5) UTC (GMT + 4)
Aug 1, 2014 12:15 Aug 1, 2014 07:45
Sunrise-Sunset Local UTC
Begin Civil Twilight 05:47 01:17
Sunrise 06:15 01:45
Sunset 08:16 15:46
End Civil Twilight 08:45 16:15

Current Weather

METAR Observed VFR
OIIK 010700Z 16010KT CAVOK 31/09 Q1014 Fri, Aug 1, 2014 @ 07:00 UTC
(45 Minutes ago)
Visual Flight Rules

Decoded METAR

Wind Visibility Clouds Conditions
160° at 10 knots (19 kph) 10 km or more
  • Clear skies
  • No significant weather
Temperatures Readings Precipitation
Current Temp 31°C (88°F)
Dewpoint 9°C (48°F)
Humidity 25%
Altimeter 29.94"Hg
Sea Level Pressure 1014mb
Field Elevation 4192.91'
None Recorded

Additional weather within a 92.6km radius of OIIK

Map ICAO Location
OIIP 87km S (126°)

24 Hour Weather History

Loading
-

24 Hour Weather Graphs

Loading
-

CheckWX.com is intended as a tool to help pilots better visualize weather data. It is not intended as a substitute for an official weather briefing obtained from a Flight Service Station. CheckWX.com does not meet the FAA requirements for an official pre-flight weather briefing. Therefore, it's important that pilots still call and obtain an official FSS pre-flight weather briefing.